sensor_id;sensor_type;location;lat;lon;timestamp;temperature;humidity
35305;DHT22;26433;48.034;-1.764;2023-03-16T06:01:43;10.90;91.50
35305;DHT22;26433;48.034;-1.764;2023-03-16T06:06:47;10.80;91.50
35305;DHT22;26433;48.034;-1.764;2023-03-16T06:11:52;10.70;91.70
35305;DHT22;26433;48.034;-1.764;2023-03-16T06:16:57;10.70;91.80
35305;DHT22;26433;48.034;-1.764;2023-03-16T06:22:00;10.50;92.10
35305;DHT22;26433;48.034;-1.764;2023-03-16T06:27:04;10.70;91.80
35305;DHT22;26433;48.034;-1.764;2023-03-16T06:32:09;10.10;92.00
35305;DHT22;26433;48.034;-1.764;2023-03-16T06:37:13;10.70;91.90
35305;DHT22;26433;48.034;-1.764;2023-03-16T06:42:17;10.70;91.80
35305;DHT22;26433;48.034;-1.764;2023-03-16T06:47:22;10.60;91.70
35305;DHT22;26433;48.034;-1.764;2023-03-16T06:52:25;10.20;91.70
35305;DHT22;26433;48.034;-1.764;2023-03-16T06:57:29;10.70;91.60
35305;DHT22;26433;48.034;-1.764;2023-03-16T07:02:34;10.70;91.40
35305;DHT22;26433;48.034;-1.764;2023-03-16T07:07:38;10.70;91.30
35305;DHT22;26433;48.034;-1.764;2023-03-16T07:12:41;10.80;91.30
35305;DHT22;26433;48.034;-1.764;2023-03-16T07:17:46;10.90;91.20
35305;DHT22;26433;48.034;-1.764;2023-03-16T07:22:50;11.00;90.70
35305;DHT22;26433;48.034;-1.764;2023-03-16T07:27:54;11.10;91.20
35305;DHT22;26433;48.034;-1.764;2023-03-16T07:32:59;11.10;90.80
35305;DHT22;26433;48.034;-1.764;2023-03-16T07:38:04;11.20;90.40
35305;DHT22;26433;48.034;-1.764;2023-03-16T07:43:08;11.40;90.50
35305;DHT22;26433;48.034;-1.764;2023-03-16T07:48:14;11.50;90.10
35305;DHT22;26433;48.034;-1.764;2023-03-16T07:53:19;11.80;89.20
35305;DHT22;26433;48.034;-1.764;2023-03-16T07:58:24;12.00;88.00
35305;DHT22;26433;48.034;-1.764;2023-03-16T08:03:30;12.10;88.00
35305;DHT22;26433;48.034;-1.764;2023-03-16T08:08:34;12.20;87.70
35305;DHT22;26433;48.034;-1.764;2023-03-16T08:13:38;12.30;88.00
35305;DHT22;26433;48.034;-1.764;2023-03-16T08:18:46;12.60;86.70
35305;DHT22;26433;48.034;-1.764;2023-03-16T08:23:51;12.80;85.70
35305;DHT22;26433;48.034;-1.764;2023-03-16T08:28:56;12.90;85.80
35305;DHT22;26433;48.034;-1.764;2023-03-16T08:34:06;13.00;85.60
35305;DHT22;26433;48.034;-1.764;2023-03-16T08:39:11;13.20;85.00
35305;DHT22;26433;48.034;-1.764;2023-03-16T08:44:15;13.40;84.80
35305;DHT22;26433;48.034;-1.764;2023-03-16T08:49:21;13.60;83.60
35305;DHT22;26433;48.034;-1.764;2023-03-16T08:54:28;13.80;83.20
35305;DHT22;26433;48.034;-1.764;2023-03-16T08:59:33;14.00;82.80
35305;DHT22;26433;48.034;-1.764;2023-03-16T09:04:38;14.10;82.70
35305;DHT22;26433;48.034;-1.764;2023-03-16T09:09:42;14.20;82.00
35305;DHT22;26433;48.034;-1.764;2023-03-16T09:14:46;14.40;81.60
35305;DHT22;26433;48.034;-1.764;2023-03-16T09:19:51;14.50;81.10
35305;DHT22;26433;48.034;-1.764;2023-03-16T09:25:04;14.80;80.40
35305;DHT22;26433;48.034;-1.764;2023-03-16T09:30:08;14.70;79.50
35305;DHT22;26433;48.034;-1.764;2023-03-16T09:35:14;15.10;79.10
35305;DHT22;26433;48.034;-1.764;2023-03-16T09:40:20;15.30;78.60
35305;DHT22;26433;48.034;-1.764;2023-03-16T09:45:25;15.50;78.20
35305;DHT22;26433;48.034;-1.764;2023-03-16T09:50:38;15.50;77.50
35305;DHT22;26433;48.034;-1.764;2023-03-16T09:55:51;15.70;77.20
35305;DHT22;26433;48.034;-1.764;2023-03-16T10:00:58;15.90;76.90
35305;DHT22;26433;48.034;-1.764;2023-03-16T10:06:09;15.90;76.30
35305;DHT22;26433;48.034;-1.764;2023-03-16T10:11:17;14.90;76.30
35305;DHT22;26433;48.034;-1.764;2023-03-16T10:16:25;16.10;76.50
35305;DHT22;26433;48.034;-1.764;2023-03-16T10:21:32;16.00;76.80
35305;DHT22;26433;48.034;-1.764;2023-03-16T10:26:37;18.70;77.90
35305;DHT22;26433;48.034;-1.764;2023-03-16T10:31:45;16.20;76.50
35305;DHT22;26433;48.034;-1.764;2023-03-16T10:36:51;16.40;76.20
35305;DHT22;26433;48.034;-1.764;2023-03-16T10:41:56;16.50;75.50
35305;DHT22;26433;48.034;-1.764;2023-03-16T10:47:00;16.40;76.00
35305;DHT22;26433;48.034;-1.764;2023-03-16T10:52:10;16.50;75.90
35305;DHT22;26433;48.034;-1.764;2023-03-16T10:57:19;16.60;75.10
35305;DHT22;26433;48.034;-1.764;2023-03-16T11:02:24;16.70;75.00
35305;DHT22;26433;48.034;-1.764;2023-03-16T11:07:34;16.80;74.80
35305;DHT22;26433;48.034;-1.764;2023-03-16T11:12:38;16.80;74.10
35305;DHT22;26433;48.034;-1.764;2023-03-16T11:17:43;17.20;73.80
35305;DHT22;26433;48.034;-1.764;2023-03-16T11:22:48;17.60;72.40
35305;DHT22;26433;48.034;-1.764;2023-03-16T11:27:52;17.90;71.00
35305;DHT22;26433;48.034;-1.764;2023-03-16T11:32:58;18.30;70.40
35305;DHT22;26433;48.034;-1.764;2023-03-16T11:38:07;18.50;69.80
35305;DHT22;26433;48.034;-1.764;2023-03-16T11:43:21;18.60;69.10
35305;DHT22;26433;48.034;-1.764;2023-03-16T11:48:28;18.70;69.10
35305;DHT22;26433;48.034;-1.764;2023-03-16T11:53:38;19.20;68.70
35305;DHT22;26433;48.034;-1.764;2023-03-16T11:58:48;19.80;66.70
35305;DHT22;26433;48.034;-1.764;2023-03-16T12:03:58;19.80;65.90
35305;DHT22;26433;48.034;-1.764;2023-03-16T12:09:13;19.80;66.20
35305;DHT22;26433;48.034;-1.764;2023-03-16T12:14:25;19.80;65.70
35305;DHT22;26433;48.034;-1.764;2023-03-16T12:19:32;19.80;65.90
35305;DHT22;26433;48.034;-1.764;2023-03-16T12:24:39;20.00;65.10
35305;DHT22;26433;48.034;-1.764;2023-03-16T12:29:48;20.40;64.30
35305;DHT22;26433;48.034;-1.764;2023-03-16T12:34:58;20.80;63.00
35305;DHT22;26433;48.034;-1.764;2023-03-16T12:40:11;21.00;62.50
35305;DHT22;26433;48.034;-1.764;2023-03-16T12:45:21;21.40;61.40
35305;DHT22;26433;48.034;-1.764;2023-03-16T12:50:26;22.00;60.50
35305;DHT22;26433;48.034;-1.764;2023-03-16T12:55:42;22.40;59.80
35305;DHT22;26433;48.034;-1.764;2023-03-16T13:00:52;23.10;59.10
35305;DHT22;26433;48.034;-1.764;2023-03-16T13:05:58;23.60;58.10
35305;DHT22;26433;48.034;-1.764;2023-03-16T13:11:04;23.70;57.70
35305;DHT22;26433;48.034;-1.764;2023-03-16T13:16:09;23.70;57.80
35305;DHT22;26433;48.034;-1.764;2023-03-16T13:21:33;24.00;57.30
35305;DHT22;26433;48.034;-1.764;2023-03-16T13:26:39;24.10;56.50
35305;DHT22;26433;48.034;-1.764;2023-03-16T13:31:44;23.80;56.90
35305;DHT22;26433;48.034;-1.764;2023-03-16T13:36:48;23.70;56.80
35305;DHT22;26433;48.034;-1.764;2023-03-16T13:41:57;23.50;56.80
35305;DHT22;26433;48.034;-1.764;2023-03-16T13:47:02;23.20;56.40
35305;DHT22;26433;48.034;-1.764;2023-03-16T13:52:10;23.30;56.30
35305;DHT22;26433;48.034;-1.764;2023-03-16T13:57:15;23.40;55.90
35305;DHT22;26433;48.034;-1.764;2023-03-16T14:02:20;23.40;55.50
35305;DHT22;26433;48.034;-1.764;2023-03-16T14:07:24;23.20;55.50
35305;DHT22;26433;48.034;-1.764;2023-03-16T14:12:30;23.20;55.20
35305;DHT22;26433;48.034;-1.764;2023-03-16T14:17:33;23.10;54.90
35305;DHT22;26433;48.034;-1.764;2023-03-16T14:22:37;23.20;54.80
35305;DHT22;26433;48.034;-1.764;2023-03-16T14:27:43;23.40;54.30
35305;DHT22;26433;48.034;-1.764;2023-03-16T14:32:55;23.50;53.50
35305;DHT22;26433;48.034;-1.764;2023-03-16T14:43:19;23.30;53.90
35305;DHT22;26433;48.034;-1.764;2023-03-16T14:48:23;23.20;54.20
35305;DHT22;26433;48.034;-1.764;2023-03-16T14:53:27;23.40;54.10
35305;DHT22;26433;48.034;-1.764;2023-03-16T14:58:33;23.30;53.90
35305;DHT22;26433;48.034;-1.764;2023-03-16T15:03:37;23.10;53.60
35305;DHT22;26433;48.034;-1.764;2023-03-16T15:08:42;21.60;53.20
35305;DHT22;26433;48.034;-1.764;2023-03-16T15:13:49;22.70;54.10
35305;DHT22;26433;48.034;-1.764;2023-03-16T15:19:04;22.50;54.10
35305;DHT22;26433;48.034;-1.764;2023-03-16T15:24:09;22.40;54.00
35305;DHT22;26433;48.034;-1.764;2023-03-16T15:29:15;22.40;53.70
35305;DHT22;26433;48.034;-1.764;2023-03-16T15:34:20;22.70;53.90
35305;DHT22;26433;48.034;-1.764;2023-03-16T15:39:24;22.70;53.60
35305;DHT22;26433;48.034;-1.764;2023-03-16T15:44:30;22.60;53.70
35305;DHT22;26433;48.034;-1.764;2023-03-16T15:49:33;22.30;53.40
35305;DHT22;26433;48.034;-1.764;2023-03-16T15:54:48;21.90;54.40
35305;DHT22;26433;48.034;-1.764;2023-03-16T15:59:53;21.50;54.90
35305;DHT22;26433;48.034;-1.764;2023-03-16T16:04:57;21.30;55.10
35305;DHT22;26433;48.034;-1.764;2023-03-16T16:10:01;21.10;55.30
35305;DHT22;26433;48.034;-1.764;2023-03-16T16:15:08;20.80;55.80
35305;DHT22;26433;48.034;-1.764;2023-03-16T16:20:21;20.50;55.90
35305;DHT22;26433;48.034;-1.764;2023-03-16T16:25:25;20.20;56.00
35305;DHT22;26433;48.034;-1.764;2023-03-16T16:30:32;20.10;56.30
35305;DHT22;26433;48.034;-1.764;2023-03-16T16:35:37;20.00;56.40
35305;DHT22;26433;48.034;-1.764;2023-03-16T16:40:41;20.00;56.60
35305;DHT22;26433;48.034;-1.764;2023-03-16T16:45:48;19.90;56.60
35305;DHT22;26433;48.034;-1.764;2023-03-16T16:50:52;19.80;56.50
35305;DHT22;26433;48.034;-1.764;2023-03-16T16:55:55;19.70;57.00
35305;DHT22;26433;48.034;-1.764;2023-03-16T17:01:00;19.50;57.00
35305;DHT22;26433;48.034;-1.764;2023-03-16T17:06:05;19.40;57.30
35305;DHT22;26433;48.034;-1.764;2023-03-16T17:11:10;19.20;57.70
35305;DHT22;26433;48.034;-1.764;2023-03-16T17:16:16;19.10;57.80
35305;DHT22;26433;48.034;-1.764;2023-03-16T17:21:22;18.90;58.20
35305;DHT22;26433;48.034;-1.764;2023-03-16T17:26:27;18.60;58.60
35305;DHT22;26433;48.034;-1.764;2023-03-16T17:31:33;18.50;58.90
35305;DHT22;26433;48.034;-1.764;2023-03-16T17:36:37;18.30;59.20
35305;DHT22;26433;48.034;-1.764;2023-03-16T17:41:40;18.20;59.40
35305;DHT22;26433;48.034;-1.764;2023-03-16T17:46:46;18.10;59.70
35305;DHT22;26433;48.034;-1.764;2023-03-16T17:51:49;17.90;59.90
35305;DHT22;26433;48.034;-1.764;2023-03-16T17:56:53;17.80;60.20
35305;DHT22;26433;48.034;-1.764;2023-03-16T18:01:57;17.70;60.40
35305;DHT22;26433;48.034;-1.764;2023-03-16T18:07:01;16.20;59.70
35305;DHT22;26433;48.034;-1.764;2023-03-16T18:12:05;17.40;60.70
35305;DHT22;26433;48.034;-1.764;2023-03-16T18:17:13;17.30;61.10
35305;DHT22;26433;48.034;-1.764;2023-03-16T18:22:18;17.10;61.40
35305;DHT22;26433;48.034;-1.764;2023-03-16T18:27:23;17.00;61.60
35305;DHT22;26433;48.034;-1.764;2023-03-16T18:32:28;16.90;61.90
35305;DHT22;26433;48.034;-1.764;2023-03-16T18:37:32;17.20;62.40
35305;DHT22;26433;48.034;-1.764;2023-03-16T18:42:35;16.70;62.40
35305;DHT22;26433;48.034;-1.764;2023-03-16T18:47:41;16.60;62.70
35305;DHT22;26433;48.034;-1.764;2023-03-16T18:52:45;16.60;62.40
35305;DHT22;26433;48.034;-1.764;2023-03-16T18:57:48;16.50;62.60
35305;DHT22;26433;48.034;-1.764;2023-03-16T19:02:55;16.40;63.00
35305;DHT22;26433;48.034;-1.764;2023-03-16T19:08:00;16.30;62.80
35305;DHT22;26433;48.034;-1.764;2023-03-16T19:13:04;16.20;63.40
35305;DHT22;26433;48.034;-1.764;2023-03-16T19:18:13;16.10;63.20
35305;DHT22;26433;48.034;-1.764;2023-03-16T19:23:17;16.10;63.20
35305;DHT22;26433;48.034;-1.764;2023-03-16T19:28:24;15.00;62.90
35305;DHT22;26433;48.034;-1.764;2023-03-16T19:33:30;16.00;63.40
35305;DHT22;26433;48.034;-1.764;2023-03-16T19:38:33;15.90;63.70
35305;DHT22;26433;48.034;-1.764;2023-03-16T19:43:37;15.70;64.30
35305;DHT22;26433;48.034;-1.764;2023-03-16T19:48:42;15.80;63.90
35305;DHT22;26433;48.034;-1.764;2023-03-16T19:53:45;15.70;63.90
35305;DHT22;26433;48.034;-1.764;2023-03-16T19:58:49;14.40;63.80
35305;DHT22;26433;48.034;-1.764;2023-03-16T20:03:55;15.70;64.10
35305;DHT22;26433;48.034;-1.764;2023-03-16T20:09:00;15.70;64.00
35305;DHT22;26433;48.034;-1.764;2023-03-16T20:14:04;15.70;64.00
35305;DHT22;26433;48.034;-1.764;2023-03-16T20:19:11;15.70;64.10
35305;DHT22;26433;48.034;-1.764;2023-03-16T20:24:15;15.70;64.00
35305;DHT22;26433;48.034;-1.764;2023-03-16T20:29:20;15.70;64.10
35305;DHT22;26433;48.034;-1.764;2023-03-16T20:34:27;15.70;64.30
35305;DHT22;26433;48.034;-1.764;2023-03-16T20:39:31;16.00;64.60
35305;DHT22;26433;48.034;-1.764;2023-03-16T20:44:37;15.90;64.80
35305;DHT22;26433;48.034;-1.764;2023-03-16T20:49:42;15.40;64.50
35305;DHT22;26433;48.034;-1.764;2023-03-16T20:54:45;15.60;64.90
35305;DHT22;26433;48.034;-1.764;2023-03-16T20:59:49;15.60;65.30
35305;DHT22;26433;48.034;-1.764;2023-03-16T21:04:57;15.60;65.10
35305;DHT22;26433;48.034;-1.764;2023-03-16T21:10:00;15.50;64.70
35305;DHT22;26433;48.034;-1.764;2023-03-16T21:15:06;15.70;65.30
35305;DHT22;26433;48.034;-1.764;2023-03-16T21:20:18;15.80;64.80
35305;DHT22;26433;48.034;-1.764;2023-03-16T21:25:22;15.90;64.60
35305;DHT22;26433;48.034;-1.764;2023-03-16T21:30:28;15.80;64.40
35305;DHT22;26433;48.034;-1.764;2023-03-16T21:35:35;15.70;65.50
35305;DHT22;26433;48.034;-1.764;2023-03-16T21:40:39;16.10;65.60
35305;DHT22;26433;48.034;-1.764;2023-03-16T21:45:42;15.60;65.50
35305;DHT22;26433;48.034;-1.764;2023-03-16T21:50:47;16.10;65.80
35305;DHT22;26433;48.034;-1.764;2023-03-16T21:55:51;15.50;65.50
35305;DHT22;26433;48.034;-1.764;2023-03-16T22:00:55;15.40;66.10
35305;DHT22;26433;48.034;-1.764;2023-03-16T22:06:00;15.20;66.60
35305;DHT22;26433;48.034;-1.764;2023-03-16T22:11:04;15.20;66.90
35305;DHT22;26433;48.034;-1.764;2023-03-16T22:16:13;17.90;68.80
35305;DHT22;26433;48.034;-1.764;2023-03-16T22:21:21;15.10;67.00
35305;DHT22;26433;48.034;-1.764;2023-03-16T22:26:27;15.00;67.10
35305;DHT22;26433;48.034;-1.764;2023-03-16T22:31:31;15.00;67.20
35305;DHT22;26433;48.034;-1.764;2023-03-16T22:36:36;12.10;66.00
35305;DHT22;26433;48.034;-1.764;2023-03-16T22:41:40;15.10;67.00
35305;DHT22;26433;48.034;-1.764;2023-03-16T22:46:43;15.10;67.30
35305;DHT22;26433;48.034;-1.764;2023-03-16T22:51:48;15.10;67.10
35305;DHT22;26433;48.034;-1.764;2023-03-16T22:56:52;15.10;67.10
35305;DHT22;26433;48.034;-1.764;2023-03-16T23:01:55;15.00;67.30
35305;DHT22;26433;48.034;-1.764;2023-03-16T23:07:00;14.90;67.40
35305;DHT22;26433;48.034;-1.764;2023-03-16T23:12:05;15.00;67.50
35305;DHT22;26433;48.034;-1.764;2023-03-16T23:17:14;14.90;67.50
35305;DHT22;26433;48.034;-1.764;2023-03-16T23:22:20;15.00;67.70
35305;DHT22;26433;48.034;-1.764;2023-03-16T23:27:23;15.00;67.50
